createdAt,value
2018-06-10T00:01:06.361Z,1.20
2018-06-10T00:03:34.329Z,1.30
2018-06-10T00:06:01.963Z,1.40
2018-06-10T00:08:29.959Z,1.33
2018-06-10T00:10:57.819Z,1.23
2018-06-10T00:13:25.694Z,1.30
2018-06-10T00:15:53.335Z,1.10
2018-06-10T00:18:21.577Z,1.23
2018-06-10T00:20:49.185Z,1.20
2018-06-10T00:23:17.061Z,1.10
2018-06-10T00:25:44.928Z,0.90
2018-06-10T00:28:12.873Z,1.10
2018-06-10T00:30:41.069Z,1.30
2018-06-10T00:33:08.694Z,1.10
2018-06-10T00:35:36.851Z,1.20
2018-06-10T00:38:04.462Z,1.23
2018-06-10T00:40:32.093Z,1.17
2018-06-10T00:43:00.088Z,1.50
2018-06-10T00:45:27.988Z,1.10
2018-06-10T00:47:55.747Z,1.17
2018-06-10T00:50:23.507Z,1.40
2018-06-10T00:52:51.751Z,1.03
2018-06-10T00:55:19.784Z,1.07
2018-06-10T00:57:48.079Z,1.27
2018-06-10T01:00:16.039Z,1.00
2018-06-10T01:02:43.656Z,1.10
2018-06-10T01:05:11.312Z,1.40
2018-06-10T01:07:39.153Z,1.20
2018-06-10T01:10:06.891Z,1.10
2018-06-10T01:12:34.843Z,1.03
2018-06-10T01:15:02.462Z,1.00
2018-06-10T01:17:30.113Z,0.90
2018-06-10T01:19:58.391Z,1.00
2018-06-10T01:22:26.764Z,1.13
2018-06-10T01:24:54.680Z,1.10
2018-06-10T01:27:22.536Z,1.10
2018-06-10T01:29:50.565Z,1.10
2018-06-10T01:32:18.192Z,1.10
2018-06-10T01:34:45.830Z,1.07
2018-06-10T01:37:13.782Z,1.30
2018-06-10T01:39:41.703Z,1.10
2018-06-10T01:42:09.333Z,1.03
2018-06-10T01:44:37.001Z,0.90
2018-06-10T01:47:05.106Z,1.30
2018-06-10T01:49:33.069Z,1.03
2018-06-10T01:52:01.058Z,1.10
2018-06-10T01:54:29.870Z,1.17
2018-06-10T01:56:57.781Z,1.20
2018-06-10T01:59:25.612Z,1.00
2018-06-10T02:01:53.974Z,1.00
2018-06-10T02:04:21.850Z,1.10
2018-06-10T02:06:49.804Z,1.00
2018-06-10T02:09:18.025Z,1.20
2018-06-10T02:11:45.650Z,1.27
2018-06-10T02:14:13.507Z,1.30
2018-06-10T02:16:41.275Z,1.10
2018-06-10T02:19:08.902Z,1.10
2018-06-10T02:21:36.813Z,1.10
2018-06-10T02:24:04.480Z,1.10
2018-06-10T02:26:32.386Z,1.10
2018-06-10T02:28:59.966Z,1.37
2018-06-10T02:31:27.618Z,1.10
2018-06-10T02:33:55.226Z,1.00
2018-06-10T02:36:23.339Z,1.10
2018-06-10T02:38:51.247Z,1.20
2018-06-10T02:41:18.859Z,1.00
2018-06-10T02:43:46.630Z,1.30
2018-06-10T02:46:14.247Z,1.30
2018-06-10T02:48:42.202Z,0.90
2018-06-10T02:51:10.399Z,1.10
2018-06-10T02:53:38.573Z,1.17
2018-06-10T02:56:06.445Z,1.00
2018-06-10T02:58:34.374Z,1.20
2018-06-10T03:01:02.326Z,1.20
2018-06-10T03:03:30.049Z,1.20
2018-06-10T03:05:58.415Z,1.03
2018-06-10T03:08:26.121Z,1.20
2018-06-10T03:10:53.878Z,1.20
2018-06-10T03:13:21.557Z,1.10
2018-06-10T03:15:49.217Z,1.20
2018-06-10T03:18:17.048Z,1.17
2018-06-10T03:20:45.196Z,1.17
2018-06-10T03:23:12.958Z,1.03
2018-06-10T03:25:40.927Z,1.10
2018-06-10T03:28:08.607Z,1.50
2018-06-10T03:30:36.427Z,1.20
2018-06-10T03:33:04.308Z,1.20
2018-06-10T03:35:32.047Z,1.20
2018-06-10T03:37:59.710Z,1.20
2018-06-10T03:40:27.585Z,1.30
2018-06-10T03:42:55.767Z,1.20
2018-06-10T03:45:23.415Z,1.17
2018-06-10T03:47:51.179Z,1.00
2018-06-10T03:50:18.985Z,1.00
2018-06-10T03:52:46.879Z,1.20
2018-06-10T03:55:15.219Z,1.10
2018-06-10T03:57:43.309Z,1.60
2018-06-10T04:00:11.020Z,1.30
2018-06-10T04:02:38.663Z,1.10
2018-06-10T04:05:06.282Z,1.30
2018-06-10T04:07:33.936Z,1.20
2018-06-10T04:10:02.322Z,1.10
2018-06-10T04:12:30.289Z,1.10
2018-06-10T04:14:58.267Z,1.30
2018-06-10T04:17:25.897Z,1.20
2018-06-10T04:19:53.492Z,1.30
2018-06-10T04:22:21.857Z,1.27
2018-06-10T04:24:49.757Z,1.20
2018-06-10T04:27:17.407Z,1.23
2018-06-10T04:29:45.394Z,1.20
2018-06-10T04:32:12.998Z,1.50
2018-06-10T04:34:41.010Z,1.10
2018-06-10T04:37:09.182Z,1.17
2018-06-10T04:39:37.058Z,1.00
2018-06-10T04:42:04.951Z,1.40
2018-06-10T04:44:32.585Z,1.20
2018-06-10T04:47:00.481Z,1.20
2018-06-10T04:49:28.334Z,1.27
2018-06-10T04:51:55.991Z,1.00
2018-06-10T04:54:23.614Z,1.20
2018-06-10T04:56:51.494Z,1.30
2018-06-10T04:59:19.160Z,1.03
2018-06-10T05:01:47.858Z,1.10
2018-06-10T05:04:15.761Z,1.20
2018-06-10T05:06:44.226Z,1.10
2018-06-10T05:09:12.182Z,1.30
2018-06-10T05:11:40.693Z,1.10
2018-06-10T05:14:08.878Z,1.13
2018-06-10T05:16:36.781Z,1.20
2018-06-10T05:19:05.123Z,1.10
2018-06-10T05:21:33.274Z,1.10
2018-06-10T05:24:00.866Z,1.00
2018-06-10T05:26:28.761Z,1.20
2018-06-10T05:28:56.374Z,1.10
2018-06-10T05:31:24.000Z,1.10
2018-06-10T05:33:52.134Z,1.20
2018-06-10T05:36:19.984Z,1.10
2018-06-10T05:38:48.479Z,1.03
2018-06-10T05:41:16.635Z,1.10
2018-06-10T05:43:44.589Z,1.20
2018-06-10T05:46:12.225Z,1.17
2018-06-10T05:48:39.845Z,1.27
2018-06-10T05:51:07.506Z,1.20
2018-06-10T05:53:35.442Z,1.27
2018-06-10T05:56:03.041Z,1.20
2018-06-10T05:58:31.154Z,1.27
2018-06-10T06:00:59.447Z,1.10
2018-06-10T06:03:27.307Z,1.17
2018-06-10T06:05:54.962Z,1.23
2018-06-10T06:08:23.144Z,1.20
2018-06-10T06:10:51.229Z,1.10
2018-06-10T06:13:18.868Z,1.20
2018-06-10T06:15:46.506Z,1.10
2018-06-10T06:18:14.178Z,1.17
2018-06-10T06:20:42.091Z,1.10
2018-06-10T06:23:09.968Z,1.20
2018-06-10T06:25:37.831Z,1.10
2018-06-10T06:28:06.025Z,1.00
2018-06-10T06:30:33.915Z,1.20
2018-06-10T06:33:01.547Z,1.00
2018-06-10T06:35:29.514Z,1.20
2018-06-10T06:37:57.144Z,1.27
2018-06-10T06:40:25.186Z,1.10
2018-06-10T06:42:53.088Z,1.10
2018-06-10T06:45:21.033Z,1.20
2018-06-10T06:47:49.008Z,1.10
2018-06-10T06:50:16.625Z,1.30
2018-06-10T06:52:44.288Z,1.10
2018-06-10T06:55:12.220Z,1.07
2018-06-10T06:57:40.898Z,1.10
2018-06-10T07:00:08.502Z,1.17
2018-06-10T07:02:36.113Z,1.30
2018-06-10T07:05:03.758Z,1.23
2018-06-10T07:07:31.588Z,1.00
2018-06-10T07:09:59.857Z,1.03
2018-06-10T07:12:27.478Z,1.30
2018-06-10T07:14:55.117Z,1.23
2018-06-10T07:17:23.160Z,1.13
2018-06-10T07:19:51.014Z,1.20
2018-06-10T07:22:19.330Z,1.10
2018-06-10T07:24:47.313Z,1.30
2018-06-10T07:27:15.061Z,1.17
2018-06-10T07:29:43.007Z,1.37
2018-06-10T07:32:11.244Z,1.23
2018-06-10T07:34:39.218Z,1.10
2018-06-10T07:37:07.110Z,1.17
2018-06-10T07:39:35.030Z,1.70
2018-06-10T07:42:02.658Z,1.33
2018-06-10T07:44:30.274Z,1.20
2018-06-10T07:46:58.467Z,1.90
2018-06-10T07:49:26.508Z,1.50
2018-06-10T07:51:54.148Z,1.00
2018-06-10T07:54:21.760Z,1.40
2018-06-10T07:56:49.946Z,1.30
2018-06-10T07:59:17.566Z,1.20
2018-06-10T08:01:45.176Z,1.40
2018-06-10T08:04:13.149Z,1.20
2018-06-10T08:06:41.016Z,1.30
2018-06-10T08:09:09.219Z,1.80
2018-06-10T08:11:37.177Z,1.30
2018-06-10T08:14:04.834Z,1.17
2018-06-10T08:16:32.763Z,1.30
2018-06-10T08:19:00.530Z,1.53
2018-06-10T08:21:28.159Z,1.50
2018-06-10T08:23:56.104Z,1.20
2018-06-10T08:26:23.766Z,1.30
2018-06-10T08:28:51.742Z,1.20
2018-06-10T08:31:20.820Z,1.33
2018-06-10T08:33:48.716Z,1.40
2018-06-10T08:36:16.460Z,1.20
2018-06-10T08:38:44.674Z,1.37
2018-06-10T08:41:12.280Z,1.27
2018-06-10T08:43:40.234Z,1.60
2018-06-10T08:46:08.059Z,1.30
2018-06-10T08:48:35.950Z,1.33
2018-06-10T08:51:04.012Z,1.50
2018-06-10T08:53:31.623Z,1.50
2018-06-10T08:55:59.564Z,1.40
2018-06-10T08:58:27.173Z,1.50
2018-06-10T09:00:55.067Z,1.47
2018-06-10T09:03:22.708Z,1.40
2018-06-10T09:05:50.296Z,1.43
2018-06-10T09:08:18.057Z,1.33
2018-06-10T09:10:45.661Z,1.40
2018-06-10T09:13:13.282Z,1.33
2018-06-10T09:15:41.491Z,1.30
2018-06-10T09:18:09.694Z,1.47
2018-06-10T09:20:37.587Z,1.30
2018-06-10T09:23:05.622Z,1.20
2018-06-10T09:25:33.236Z,1.40
2018-06-10T09:28:00.952Z,1.37
2018-06-10T09:30:29.128Z,1.33
2018-06-10T09:32:56.762Z,1.27
2018-06-10T09:35:24.423Z,1.53
2018-06-10T09:37:52.422Z,1.53
2018-06-10T09:40:20.123Z,1.40
2018-06-10T09:42:47.740Z,1.43
2018-06-10T09:45:15.323Z,1.30
2018-06-10T09:47:43.534Z,1.33
2018-06-10T09:50:11.384Z,1.37
2018-06-10T09:52:38.989Z,1.27
2018-06-10T09:55:07.224Z,1.40
2018-06-10T09:57:35.295Z,1.50
2018-06-10T10:00:02.960Z,1.30
2018-06-10T10:02:30.578Z,1.47
2018-06-10T10:04:58.473Z,1.20
2018-06-10T10:07:26.885Z,1.13
2018-06-10T10:09:55.065Z,1.40
2018-06-10T10:12:22.685Z,1.30
2018-06-10T10:14:50.283Z,1.20
2018-06-10T10:17:18.010Z,1.30
2018-06-10T10:19:46.156Z,1.50
2018-06-10T10:22:13.794Z,1.23
2018-06-10T10:24:41.545Z,1.57
2018-06-10T10:27:09.137Z,1.43
2018-06-10T10:29:36.796Z,1.30
2018-06-10T10:32:05.154Z,1.20
2018-06-10T10:34:33.037Z,1.33
2018-06-10T10:37:00.873Z,1.60
2018-06-10T10:39:28.508Z,1.60
2018-06-10T10:41:56.356Z,1.50
2018-06-10T10:44:24.002Z,1.30
2018-06-10T10:46:51.585Z,1.23
2018-06-10T10:49:19.497Z,1.57
2018-06-10T10:51:47.692Z,1.50
2018-06-10T10:54:15.629Z,1.97
2018-06-10T10:56:43.696Z,1.53
2018-06-10T10:59:12.129Z,1.30
2018-06-10T11:01:40.006Z,1.30
2018-06-10T11:04:08.028Z,1.40
2018-06-10T11:06:36.238Z,1.53
2018-06-10T11:09:06.766Z,1.20
2018-06-10T11:11:35.481Z,1.63
2018-06-10T11:14:03.130Z,1.40
2018-06-10T11:16:30.733Z,1.30
2018-06-10T11:18:58.393Z,1.50
2018-06-10T11:21:26.342Z,1.20
2018-06-10T11:23:54.173Z,1.50
2018-06-10T11:26:22.065Z,1.50
2018-06-10T11:28:49.726Z,1.27
2018-06-10T11:31:17.511Z,1.50
2018-06-10T11:33:46.317Z,1.37
2018-06-10T11:36:13.943Z,1.73
2018-06-10T11:38:41.944Z,1.33
2018-06-10T11:41:09.843Z,1.40
2018-06-10T11:43:37.847Z,1.87
2018-06-10T11:46:05.502Z,1.30
2018-06-10T11:48:33.465Z,1.27
2018-06-10T11:51:01.428Z,1.33
2018-06-10T11:53:29.600Z,1.40
2018-06-10T11:55:57.214Z,1.37
2018-06-10T11:58:25.449Z,1.50
2018-06-10T12:00:53.076Z,1.40
2018-06-10T12:03:21.008Z,1.40
2018-06-10T12:05:48.956Z,1.50
2018-06-10T12:08:16.916Z,1.20
2018-06-10T12:10:44.821Z,1.40
2018-06-10T12:13:12.819Z,1.63
2018-06-10T12:15:40.426Z,2.17
2018-06-10T12:18:08.041Z,1.50
2018-06-10T12:20:35.938Z,1.20
2018-06-10T12:23:03.752Z,1.23
2018-06-10T12:25:31.665Z,1.33
2018-06-10T12:27:59.854Z,1.23
2018-06-10T12:30:27.543Z,1.47
2018-06-10T12:32:55.165Z,1.73
2018-06-10T12:35:22.801Z,1.90
2018-06-10T12:37:50.780Z,1.70
2018-06-10T12:40:18.797Z,1.80
2018-06-10T12:42:46.650Z,1.20
2018-06-10T12:45:14.482Z,1.40
2018-06-10T12:47:42.121Z,1.70
2018-06-10T12:50:10.040Z,1.50
2018-06-10T12:52:37.637Z,2.00
2018-06-10T12:55:05.950Z,1.30
2018-06-10T12:57:34.037Z,1.27
2018-06-10T13:00:01.645Z,2.00
2018-06-10T13:02:29.633Z,1.70
2018-06-10T13:04:57.497Z,1.43
2018-06-10T13:07:25.675Z,1.60
2018-06-10T13:09:53.684Z,1.37
2018-06-10T13:12:21.826Z,1.60
2018-06-10T13:14:49.484Z,1.73
2018-06-10T13:17:17.087Z,1.50
2018-06-10T13:19:44.770Z,1.80
2018-06-10T13:22:12.656Z,1.70
2018-06-10T13:24:40.630Z,1.77
2018-06-10T13:27:08.599Z,1.40
2018-06-10T13:29:36.217Z,1.90
2018-06-10T13:32:04.146Z,1.83
2018-06-10T13:34:32.586Z,1.33
2018-06-10T13:37:00.445Z,1.57
2018-06-10T13:39:28.352Z,1.60
2018-06-10T13:41:56.350Z,2.20
2018-06-10T13:44:24.513Z,1.70
2018-06-10T13:46:52.129Z,1.60
2018-06-10T13:49:20.372Z,1.60
2018-06-10T13:51:48.336Z,2.17
2018-06-10T13:54:15.970Z,1.70
2018-06-10T13:56:43.968Z,1.80
2018-06-10T13:59:11.741Z,1.60
2018-06-10T14:01:39.331Z,1.63
2018-06-10T14:04:07.550Z,1.80
2018-06-10T14:06:35.857Z,1.40
2018-06-10T14:09:05.557Z,1.60
2018-06-10T14:11:33.172Z,2.10
2018-06-10T14:14:01.191Z,1.97
2018-06-10T14:16:28.789Z,1.47
2018-06-10T14:18:56.985Z,1.43
2018-06-10T14:21:25.205Z,1.90
2018-06-10T14:23:52.824Z,1.80
2018-06-10T14:26:20.577Z,1.67
2018-06-10T14:28:48.186Z,1.80
2018-06-10T14:31:16.328Z,1.77
2018-06-10T14:33:44.785Z,1.53
2018-06-10T14:36:12.671Z,1.43
2018-06-10T14:38:40.315Z,1.37
2018-06-10T14:41:08.456Z,1.70
2018-06-10T14:43:36.366Z,1.73
2018-06-10T14:46:04.361Z,1.70
2018-06-10T14:48:32.001Z,1.40
2018-06-10T14:50:59.640Z,1.63
2018-06-10T14:53:27.275Z,1.93
2018-06-10T14:55:54.952Z,1.60
2018-06-10T14:58:22.602Z,1.50
2018-06-10T15:00:50.507Z,1.30
2018-06-10T15:03:18.705Z,1.80
2018-06-10T15:05:46.341Z,1.60
2018-06-10T15:08:14.030Z,1.47
2018-06-10T15:10:42.075Z,2.20
2018-06-10T15:13:09.736Z,1.87
2018-06-10T15:15:37.985Z,2.20
2018-06-10T15:18:05.634Z,1.93
2018-06-10T15:20:33.510Z,2.10
2018-06-10T15:23:01.165Z,2.30
2018-06-10T15:25:30.141Z,2.20
2018-06-10T15:27:58.444Z,1.80
2018-06-10T15:30:26.069Z,1.73
2018-06-10T15:32:54.477Z,1.70
2018-06-10T15:35:22.522Z,2.00
2018-06-10T15:37:50.762Z,2.17
2018-06-10T15:40:18.729Z,2.30
2018-06-10T15:42:46.733Z,1.90
2018-06-10T15:45:14.568Z,2.60
2018-06-10T15:47:42.530Z,2.50
2018-06-10T15:50:10.321Z,2.03
2018-06-10T15:52:38.241Z,2.07
2018-06-10T15:55:06.184Z,2.50
2018-06-10T15:57:34.693Z,2.33
2018-06-10T16:00:02.548Z,2.40
2018-06-10T16:02:30.524Z,2.70
2018-06-10T16:04:58.448Z,2.30
2018-06-10T16:07:26.069Z,2.40
2018-06-10T16:09:54.357Z,2.70
2018-06-10T16:12:21.975Z,2.23
2018-06-10T16:14:49.887Z,2.20
2018-06-10T16:17:17.787Z,2.30
2018-06-10T16:19:45.422Z,2.00
2018-06-10T16:22:13.081Z,3.20
2018-06-10T16:24:40.698Z,2.07
2018-06-10T16:27:08.676Z,2.80
2018-06-10T16:29:36.524Z,2.67
2018-06-10T16:32:04.141Z,2.63
2018-06-10T16:34:32.162Z,2.00
2018-06-10T16:36:59.861Z,1.87
2018-06-10T16:39:27.848Z,2.60
2018-06-10T16:41:56.082Z,2.57
2018-06-10T16:44:23.698Z,2.00
2018-06-10T16:46:51.566Z,2.17
2018-06-10T16:49:19.303Z,2.40
2018-06-10T16:51:47.171Z,2.13
2018-06-10T16:54:15.782Z,2.40
2018-06-10T16:56:43.381Z,2.10
2018-06-10T16:59:11.259Z,2.20
2018-06-10T17:01:39.026Z,2.53
2018-06-10T17:04:06.777Z,2.17
2018-06-10T17:06:34.352Z,2.30
2018-06-10T17:09:02.660Z,2.07
2018-06-10T17:11:30.539Z,2.40
2018-06-10T17:13:58.507Z,1.83
2018-06-10T17:16:26.141Z,2.30
2018-06-10T17:18:53.758Z,2.43
2018-06-10T17:21:21.471Z,2.70
2018-06-10T17:23:49.073Z,2.10
2018-06-10T17:26:16.993Z,2.30
2018-06-10T17:28:44.569Z,2.20
2018-06-10T17:31:12.823Z,2.47
2018-06-10T17:33:41.262Z,2.67
2018-06-10T17:36:08.887Z,2.37
2018-06-10T17:38:37.177Z,2.80
2018-06-10T17:41:04.785Z,2.10
2018-06-10T17:43:32.548Z,2.53
2018-06-10T17:46:00.137Z,2.57
2018-06-10T17:48:28.201Z,2.50
2018-06-10T17:50:56.131Z,2.60
2018-06-10T17:53:23.952Z,2.83
2018-06-10T17:55:51.784Z,2.73
2018-06-10T17:58:19.674Z,2.63
2018-06-10T18:00:47.358Z,2.73
2018-06-10T18:03:16.202Z,2.23
2018-06-10T18:05:44.253Z,2.53
2018-06-10T18:08:11.850Z,2.30
2018-06-10T18:10:39.669Z,2.50
2018-06-10T18:13:08.035Z,2.80
2018-06-10T18:15:35.663Z,2.30
2018-06-10T18:18:03.548Z,2.70
2018-06-10T18:20:31.820Z,2.83
2018-06-10T18:22:59.682Z,2.70
2018-06-10T18:25:27.542Z,2.70
2018-06-10T18:27:55.483Z,2.90
2018-06-10T18:30:23.568Z,2.30
2018-06-10T18:32:51.411Z,2.57
2018-06-10T18:35:19.076Z,2.80
2018-06-10T18:37:47.260Z,3.00
2018-06-10T18:40:14.878Z,2.70
2018-06-10T18:42:42.673Z,3.20
2018-06-10T18:45:11.035Z,3.30
2018-06-10T18:47:38.976Z,2.60
2018-06-10T18:50:07.449Z,3.03
2018-06-10T18:52:35.068Z,2.40
2018-06-10T18:55:02.713Z,2.60
2018-06-10T18:57:30.326Z,3.13
2018-06-10T18:59:58.200Z,2.60
2018-06-10T19:02:25.828Z,2.60
2018-06-10T19:04:53.695Z,2.60
2018-06-10T19:07:21.408Z,3.03
2018-06-10T19:09:49.026Z,3.00
2018-06-10T19:12:16.625Z,3.07
2018-06-10T19:14:44.309Z,2.90
2018-06-10T19:17:11.941Z,2.57
2018-06-10T19:19:39.873Z,2.80
2018-06-10T19:22:07.498Z,3.07
2018-06-10T19:24:35.718Z,2.40
2018-06-10T19:27:03.719Z,2.60
2018-06-10T19:29:31.336Z,2.47
2018-06-10T19:31:59.085Z,2.63
2018-06-10T19:34:26.965Z,2.67
2018-06-10T19:36:54.579Z,2.80
2018-06-10T19:39:22.378Z,2.70
2018-06-10T19:41:49.945Z,2.50
2018-06-10T19:44:17.951Z,2.40
2018-06-10T19:46:45.550Z,2.40
2018-06-10T19:49:13.765Z,2.80
2018-06-10T19:51:41.709Z,2.77
2018-06-10T19:54:09.594Z,2.60
2018-06-10T19:56:37.475Z,2.40
2018-06-10T19:59:05.382Z,2.27
2018-06-10T20:01:32.975Z,2.60
2018-06-10T20:04:00.920Z,2.90
2018-06-10T20:06:29.092Z,2.47
2018-06-10T20:08:57.168Z,2.60
2018-06-10T20:11:24.792Z,3.00
2018-06-10T20:13:52.938Z,2.60
2018-06-10T20:16:20.670Z,2.60
2018-06-10T20:18:48.281Z,2.80
2018-06-10T20:21:15.869Z,2.77
2018-06-10T20:23:43.806Z,2.80
2018-06-10T20:26:11.686Z,2.80
2018-06-10T20:28:39.851Z,2.40
2018-06-10T20:31:08.110Z,2.40
2018-06-10T20:33:36.306Z,2.70
2018-06-10T20:36:04.115Z,2.87
2018-06-10T20:38:32.185Z,2.60
2018-06-10T20:41:00.065Z,2.40
2018-06-10T20:43:27.680Z,2.50
2018-06-10T20:45:55.601Z,2.20
2018-06-10T20:48:23.581Z,2.50
2018-06-10T20:50:51.407Z,2.93
2018-06-10T20:53:19.058Z,2.60
2018-06-10T20:55:46.953Z,2.20
2018-06-10T20:58:14.772Z,2.60
2018-06-10T21:00:42.844Z,2.70
2018-06-10T21:03:10.677Z,2.80
2018-06-10T21:05:38.582Z,2.60
2018-06-10T21:08:07.418Z,3.10
2018-06-10T21:10:35.232Z,2.70
2018-06-10T21:13:03.154Z,2.60
2018-06-10T21:15:31.061Z,2.77
2018-06-10T21:17:59.007Z,2.63
2018-06-10T21:20:26.633Z,3.47
2018-06-10T21:22:54.269Z,2.93
2018-06-10T21:25:22.109Z,2.47
2018-06-10T21:27:50.264Z,2.67
2018-06-10T21:30:18.144Z,3.00
2018-06-10T21:32:46.437Z,2.67
2018-06-10T21:35:14.352Z,2.90
2018-06-10T21:37:42.449Z,2.37
2018-06-10T21:40:10.094Z,2.80
2018-06-10T21:42:38.323Z,2.30
2018-06-10T21:45:06.593Z,2.70
2018-06-10T21:47:34.215Z,3.00
2018-06-10T21:50:01.857Z,2.73
2018-06-10T21:52:30.125Z,2.37
2018-06-10T21:54:58.088Z,2.67
2018-06-10T21:57:25.973Z,2.20
2018-06-10T21:59:53.573Z,2.30
2018-06-10T22:02:21.754Z,2.20
2018-06-10T22:04:49.404Z,2.70
2018-06-10T22:07:17.584Z,2.40
2018-06-10T22:09:45.696Z,2.57
2018-06-10T22:12:13.297Z,2.30
2018-06-10T22:14:41.188Z,2.30
2018-06-10T22:17:09.083Z,2.30
2018-06-10T22:19:36.981Z,3.00
2018-06-10T22:22:04.626Z,2.63
2018-06-10T22:24:32.755Z,2.47
2018-06-10T22:27:00.901Z,2.50
2018-06-10T22:29:28.759Z,2.50
2018-06-10T22:31:56.521Z,2.70
2018-06-10T22:34:24.423Z,2.63
2018-06-10T22:36:52.511Z,2.90
2018-06-10T22:39:20.518Z,2.60
2018-06-10T22:41:48.319Z,2.10
2018-06-10T22:44:16.205Z,2.70
2018-06-10T22:46:43.826Z,2.60
2018-06-10T22:49:11.450Z,2.60
2018-06-10T22:51:39.344Z,2.80
2018-06-10T22:54:49.360Z,2.40
2018-06-10T22:57:17.422Z,2.97
2018-06-10T22:59:45.544Z,2.30
2018-06-10T23:02:13.163Z,2.40
2018-06-10T23:04:40.823Z,2.60
2018-06-10T23:07:08.565Z,2.20
2018-06-10T23:09:36.175Z,3.00
2018-06-10T23:12:03.793Z,2.20
2018-06-10T23:14:31.698Z,2.67
2018-06-10T23:16:59.517Z,2.10
2018-06-10T23:19:27.719Z,2.50
2018-06-10T23:21:55.333Z,2.30
2018-06-10T23:24:23.513Z,2.93
2018-06-10T23:26:51.627Z,2.60
2018-06-10T23:29:19.232Z,2.50
2018-06-10T23:31:46.826Z,2.80
2018-06-10T23:34:15.231Z,2.43
2018-06-10T23:36:43.463Z,2.40
2018-06-10T23:39:11.085Z,2.50
2018-06-10T23:41:38.984Z,2.40
2018-06-10T23:44:07.138Z,2.30
2018-06-10T23:46:35.517Z,2.23
2018-06-10T23:49:03.721Z,2.83
2018-06-10T23:51:31.537Z,2.30
2018-06-10T23:53:59.166Z,2.30
2018-06-10T23:56:27.021Z,2.40
2018-06-10T23:58:54.782Z,2.47
